Time;durP1;ratioP1;P1;durP2;ratioP2;P2;SDS_P1;SDS_P2;PMS_P1;PMS_P2;Temp;Humidity;BMP_temperature;BMP_pressure;BME280_temperature;BME280_humidity;BME280_pressure;Samples;Min_cycle;Max_cycle;Signal;HPM_P1;HPM_P2
2022/09/30 00:01:02;;;;;;;8.67;6.10;;;6.10;1.00;;;;;;5074976;28;20186;-78
2022/09/30 00:03:38;;;;;;;14.67;5.57;;;6.00;1.00;;;;;;5076413;28;20421;-78
2022/09/30 00:06:28;;;;;;;10.47;5.53;;;6.00;1.00;;;;;;5079429;28;21011;-88
2022/09/30 00:19:00;;;;;;;14.07;6.47;;;6.00;1.00;;;;;;5076544;28;20412;-87
2022/09/30 00:21:29;;;;;;;9.23;6.13;;;6.00;1.00;;;;;;5078370;28;20421;-88
2022/09/30 00:24:26;;;;;;;8.90;5.30;;;6.10;1.00;;;;;;5076788;28;20534;-88
2022/09/30 00:27:03;;;;;;;12.77;5.70;;;6.00;1.00;;;;;;5076519;28;20503;-88
2022/09/30 00:29:44;;;;;;;9.60;5.80;;;6.00;1.00;;;;;;5076635;28;20393;-88
2022/09/30 00:32:26;;;;;;;10.53;6.07;;;6.00;1.00;;;;;;5089975;28;20444;-88
2022/09/30 00:35:03;;;;;;;15.80;5.10;;;5.90;1.00;;;;;;5076237;28;20961;-79
2022/09/30 00:37:38;;;;;;;13.37;5.97;;;5.90;1.00;;;;;;5075487;28;20396;-79
2022/09/30 00:40:10;;;;;;;18.20;6.63;;;5.90;1.00;;;;;;5088820;28;20472;-78
2022/09/30 00:42:41;;;;;;;9.57;5.13;;;5.90;1.00;;;;;;5093564;28;20457;-78
2022/09/30 00:45:10;;;;;;;10.07;5.83;;;5.90;1.00;;;;;;5089524;28;20424;-78
2022/09/30 00:47:59;;;;;;;9.90;6.20;;;5.90;1.00;;;;;;5085943;28;20514;-78
2022/09/30 00:51:08;;;;;;;15.40;6.73;;;5.80;1.00;;;;;;5013500;28;20935;-78
2022/09/30 00:53:51;;;;;;;16.30;6.30;;;5.80;1.00;;;;;;5005123;28;20425;-78
2022/09/30 00:56:25;;;;;;;12.60;6.60;;;5.80;1.00;;;;;;5008361;28;20446;-78
2022/09/30 00:59:10;;;;;;;17.80;6.33;;;5.80;1.00;;;;;;5013605;28;20432;-79
2022/09/30 01:01:45;;;;;;;13.00;6.07;;;5.80;1.00;;;;;;5002533;28;20440;-78
2022/09/30 01:04:40;;;;;;;10.83;6.10;;;5.80;1.00;;;;;;5010949;28;20598;-78
2022/09/30 01:07:07;;;;;;;13.53;6.50;;;5.70;1.00;;;;;;4999872;28;20468;-78
2022/09/30 01:09:41;;;;;;;9.20;6.67;;;5.70;1.00;;;;;;5012557;28;20930;-78
2022/09/30 01:12:14;;;;;;;8.30;6.57;;;5.70;1.00;;;;;;4988514;28;20782;-78
2022/09/30 01:14:58;;;;;;;12.68;6.72;;;5.70;1.00;;;;;;5010823;28;20431;-78
2022/09/30 01:18:01;;;;;;;10.90;6.37;;;5.60;1.00;;;;;;5012377;28;20638;-78
2022/09/30 01:20:59;;;;;;;11.43;6.80;;;5.60;1.00;;;;;;5004965;28;20451;-78
2022/09/30 01:24:10;;;;;;;8.97;7.17;;;5.50;1.00;;;;;;5011410;28;20527;-78
2022/09/30 01:26:44;;;;;;;10.50;7.20;;;5.50;1.00;;;;;;5021078;28;20551;-79
2022/09/30 01:29:50;;;;;;;10.00;7.23;;;5.50;1.00;;;;;;5076771;28;20435;-78
2022/09/30 01:32:34;;;;;;;15.03;7.43;;;5.50;1.00;;;;;;5088087;28;20494;-78
2022/09/30 01:38:56;;;;;;;11.17;7.40;;;5.50;1.00;;;;;;5083678;28;20535;-88
2022/09/30 01:42:02;;;;;;;12.90;7.50;;;5.50;1.00;;;;;;5074887;28;20428;-88
2022/09/30 01:51:33;;;;;;;16.35;8.00;;;5.40;1.00;;;;;;5075239;28;20899;-79
2022/09/30 01:54:09;;;;;;;10.77;7.27;;;5.40;1.00;;;;;;5087675;28;20178;-78
2022/09/30 01:56:57;;;;;;;13.00;7.90;;;5.40;1.00;;;;;;5088862;28;20439;-78
2022/09/30 01:59:46;;;;;;;12.10;8.40;;;5.30;1.00;;;;;;5091816;28;20198;-78
2022/09/30 02:02:27;;;;;;;13.10;7.30;;;5.30;1.00;;;;;;5078881;28;20955;-78
2022/09/30 02:05:08;;;;;;;16.87;8.43;;;5.30;1.00;;;;;;5072934;28;20464;-79
2022/09/30 02:08:20;;;;;;;15.67;7.50;;;5.30;1.00;;;;;;5073872;28;20491;-78
2022/09/30 02:11:01;;;;;;;12.17;7.70;;;5.30;1.00;;;;;;5087368;28;20421;-78
2022/09/30 02:13:46;;;;;;;14.20;7.73;;;5.30;1.00;;;;;;5093984;28;20468;-79
2022/09/30 02:16:22;;;;;;;13.47;9.07;;;5.30;1.00;;;;;;5073916;28;20428;-78
2022/09/30 02:18:56;;;;;;;17.90;8.30;;;5.20;1.00;;;;;;5076080;28;20432;-78
2022/09/30 02:21:54;;;;;;;12.87;8.00;;;5.20;1.00;;;;;;5078358;28;20186;-88
2022/09/30 02:24:54;;;;;;;13.40;8.30;;;5.20;1.00;;;;;;5075340;28;20430;-88
2022/09/30 02:27:50;;;;;;;13.00;7.90;;;5.20;1.00;;;;;;5087808;28;20449;-88
2022/09/30 02:34:06;;;;;;;10.37;8.00;;;5.20;1.00;;;;;;5083280;28;20420;-88
2022/09/30 02:37:15;;;;;;;15.40;7.20;;;5.20;1.00;;;;;;5074890;28;20864;-79
2022/09/30 02:40:02;;;;;;;14.57;8.50;;;5.10;1.00;;;;;;5072136;28;20529;-78
2022/09/30 02:43:08;;;;;;;12.43;8.07;;;5.10;1.00;;;;;;5076122;28;20493;-78
2022/09/30 02:45:49;;;;;;;12.27;7.63;;;5.10;1.00;;;;;;5082876;28;20660;-79
2022/09/30 02:48:41;;;;;;;13.17;7.83;;;5.10;1.00;;;;;;5084446;28;20428;-78
2022/09/30 02:51:44;;;;;;;12.77;8.83;;;5.00;1.00;;;;;;5079118;28;20426;-88
2022/09/30 02:54:29;;;;;;;17.83;8.37;;;5.00;1.00;;;;;;5080020;28;20475;-88
2022/09/30 02:57:23;;;;;;;15.00;8.00;;;5.00;1.00;;;;;;5089698;28;20435;-88
2022/09/30 03:00:38;;;;;;;13.77;7.80;;;5.00;1.00;;;;;;5087881;28;20416;-88
2022/09/30 03:03:31;;;;;;;12.98;7.60;;;5.00;1.00;;;;;;5086747;28;20443;-88
2022/09/30 03:05:57;;;;;;;15.40;7.97;;;5.00;1.00;;;;;;5082146;28;20198;-78
2022/09/30 03:08:26;;;;;;;13.17;8.00;;;4.90;1.00;;;;;;5087160;28;20412;-78
2022/09/30 03:11:16;;;;;;;11.70;7.50;;;4.90;1.00;;;;;;5081771;28;20785;-78
2022/09/30 03:14:09;;;;;;;12.10;7.40;;;4.90;1.00;;;;;;5102044;28;20990;-78
2022/09/30 03:16:40;;;;;;;22.23;7.93;;;4.90;1.00;;;;;;5077146;28;20210;-78
2022/09/30 03:19:36;;;;;;;16.17;8.17;;;4.90;1.00;;;;;;5088125;28;20830;-79
2022/09/30 03:22:23;;;;;;;16.60;8.05;;;4.80;1.00;;;;;;5076252;28;20413;-78
2022/09/30 03:25:20;;;;;;;10.15;7.85;;;4.80;1.00;;;;;;5089280;28;20178;-79
2022/09/30 03:28:20;;;;;;;13.20;8.18;;;4.80;1.00;;;;;;5084100;28;20195;-79
2022/09/30 03:31:16;;;;;;;9.23;6.93;;;4.80;1.00;;;;;;5084633;28;20201;-78
2022/09/30 03:33:50;;;;;;;8.15;7.20;;;4.70;1.00;;;;;;5081649;28;20520;-78
2022/09/30 03:36:38;;;;;;;12.82;7.55;;;4.70;1.00;;;;;;5083049;28;20179;-88
2022/09/30 03:39:28;;;;;;;11.10;8.10;;;4.70;1.00;;;;;;5086146;28;20344;-88
2022/09/30 03:42:14;;;;;;;16.25;7.80;;;4.70;1.00;;;;;;5092818;28;20269;-88
2022/09/30 03:45:21;;;;;;;15.70;8.15;;;4.70;1.00;;;;;;5079005;28;20214;-88
2022/09/30 03:51:23;;;;;;;9.55;7.55;;;4.50;1.00;;;;;;5092251;28;20208;-80
2022/09/30 03:53:52;;;;;;;13.23;8.40;;;4.40;1.00;;;;;;5095804;28;20193;-78
2022/09/30 03:56:50;;;;;;;12.63;8.50;;;4.40;1.00;;;;;;5083263;28;20270;-78
2022/09/30 03:59:24;;;;;;;17.10;8.80;;;4.40;1.00;;;;;;5076489;28;20258;-79
2022/09/30 04:01:52;;;;;;;12.52;8.45;;;4.40;1.00;;;;;;5077299;28;20225;-79
2022/09/30 04:04:18;;;;;;;12.20;8.05;;;4.40;1.00;;;;;;5088906;28;20196;-78
2022/09/30 04:10:24;;;;;;;8.77;6.93;;;4.40;1.00;;;;;;5076942;28;20154;-88
2022/09/30 04:12:53;;;;;;;11.40;8.30;;;4.40;1.00;;;;;;5090267;28;20179;-88
2022/09/30 04:15:21;;;;;;;10.85;8.10;;;4.40;1.00;;;;;;5077975;28;20260;-88
2022/09/30 04:17:50;;;;;;;14.88;7.10;;;4.40;1.00;;;;;;5087912;28;20185;-88
2022/09/30 04:20:50;;;;;;;11.02;6.90;;;4.40;1.00;;;;;;5075554;28;20229;-88
2022/09/30 04:23:37;;;;;;;11.27;7.63;;;4.30;1.00;;;;;;5076956;28;20213;-78
2022/09/30 04:26:38;;;;;;;13.98;7.90;;;4.30;1.00;;;;;;5075578;28;20247;-78
2022/09/30 04:29:04;;;;;;;13.23;8.00;;;4.30;1.00;;;;;;5083629;28;20180;-78
2022/09/30 04:31:39;;;;;;;9.77;7.17;;;4.30;1.00;;;;;;5082110;28;20190;-78
2022/09/30 04:34:05;;;;;;;9.68;7.18;;;4.30;1.00;;;;;;5082753;28;20540;-79
2022/09/30 04:36:33;;;;;;;10.83;6.73;;;4.30;1.00;;;;;;5074671;28;20210;-86
2022/09/30 04:39:50;;;;;;;12.63;7.30;;;4.20;1.00;;;;;;5075056;28;20455;-88
2022/09/30 04:45:43;;;;;;;8.75;6.35;;;4.10;1.00;;;;;;5085279;28;20181;-88
2022/09/30 04:48:23;;;;;;;14.88;7.30;;;4.10;1.00;;;;;;5087175;28;20229;-88
2022/09/30 04:50:50;;;;;;;16.95;7.25;;;4.10;1.00;;;;;;5082300;28;20182;-80
2022/09/30 04:53:21;;;;;;;12.88;7.45;;;4.00;1.00;;;;;;5085409;28;20175;-76
2022/09/30 04:55:57;;;;;;;9.20;7.22;;;4.10;1.00;;;;;;5084070;28;20542;-85
2022/09/30 04:58:23;;;;;;;15.73;6.60;;;4.10;1.00;;;;;;5088973;28;20277;-73
2022/09/30 05:00:49;;;;;;;12.27;7.35;;;4.10;1.00;;;;;;5087485;28;20194;-73
2022/09/30 05:03:15;;;;;;;10.90;7.63;;;4.10;1.00;;;;;;5088343;28;20555;-74
2022/09/30 05:05:43;;;;;;;7.97;6.23;;;4.00;1.00;;;;;;5079839;28;20190;-74
2022/09/30 05:08:38;;;;;;;11.40;7.10;;;4.00;1.00;;;;;;5088917;28;20178;-76
2022/09/30 05:11:09;;;;;;;11.02;7.20;;;4.00;1.00;;;;;;5082809;28;20175;-75
2022/09/30 05:13:37;;;;;;;9.18;7.05;;;4.00;1.00;;;;;;5080755;28;20645;-75
2022/09/30 05:16:04;;;;;;;8.98;7.03;;;4.00;1.00;;;;;;5082898;28;20197;-74
2022/09/30 05:19:20;;;;;;;11.23;6.88;;;3.90;1.00;;;;;;5079410;28;20174;-80
2022/09/30 05:21:51;;;;;;;11.23;6.75;;;3.90;1.00;;;;;;5079778;28;20186;-77
2022/09/30 05:24:17;;;;;;;9.90;7.38;;;3.80;1.00;;;;;;5078909;28;20284;-78
2022/09/30 05:26:42;;;;;;;12.40;7.43;;;3.90;1.00;;;;;;5084160;28;20212;-77
2022/09/30 05:29:09;;;;;;;11.63;7.07;;;3.90;1.00;;;;;;5091949;28;20432;-79
2022/09/30 05:31:35;;;;;;;12.77;7.65;;;3.90;1.00;;;;;;5075054;28;20210;-78
2022/09/30 05:34:09;;;;;;;9.30;7.27;;;3.90;1.00;;;;;;5074356;28;20217;-79
2022/09/30 05:36:45;;;;;;;9.75;7.57;;;3.80;1.00;;;;;;5094448;28;20193;-79
2022/09/30 05:39:11;;;;;;;10.27;7.03;;;3.90;1.00;;;;;;5084472;28;20198;-78
2022/09/30 05:41:39;;;;;;;11.25;7.45;;;3.90;1.00;;;;;;5077672;28;20179;-80
2022/09/30 05:44:06;;;;;;;13.18;8.05;;;3.90;1.00;;;;;;5075832;28;20588;-79
2022/09/30 05:46:36;;;;;;;13.27;7.40;;;3.90;1.00;;;;;;5082965;28;20226;-79
2022/09/30 05:49:03;;;;;;;11.52;6.88;;;3.90;1.00;;;;;;5075640;28;20179;-79
2022/09/30 05:51:33;;;;;;;12.63;7.20;;;3.80;1.00;;;;;;5084752;28;20266;-79
2022/09/30 05:54:03;;;;;;;12.55;7.05;;;3.90;1.00;;;;;;5074394;28;20183;-78
2022/09/30 05:56:33;;;;;;;11.05;7.15;;;3.90;1.00;;;;;;5078061;28;20549;-80
2022/09/30 05:59:00;;;;;;;10.25;8.07;;;3.90;1.00;;;;;;5074217;28;20213;-78
2022/09/30 06:01:48;;;;;;;12.52;7.32;;;4.00;1.00;;;;;;5078462;28;20258;-78
2022/09/30 06:04:21;;;;;;;14.38;7.20;;;4.10;1.00;;;;;;5087705;28;20244;-80
2022/09/30 06:06:51;;;;;;;9.98;7.15;;;4.00;1.00;;;;;;5072388;28;20199;-79
2022/09/30 06:09:21;;;;;;;10.95;7.32;;;4.00;1.00;;;;;;5074936;28;20515;-75
2022/09/30 06:11:46;;;;;;;10.93;7.15;;;4.00;1.00;;;;;;5094239;28;20233;-75
2022/09/30 06:14:12;;;;;;;13.20;7.00;;;4.10;1.00;;;;;;5078024;28;20262;-75
2022/09/30 06:16:46;;;;;;;8.00;6.20;;;4.20;1.00;;;;;;5093262;28;20570;-75
2022/09/30 06:19:11;;;;;;;9.93;7.30;;;4.30;1.00;;;;;;5094022;28;20416;-75
2022/09/30 06:21:45;;;;;;;10.97;6.97;;;4.30;1.00;;;;;;5086579;28;20186;-75
2022/09/30 06:24:15;;;;;;;11.55;7.13;;;4.40;1.00;;;;;;5079815;28;20675;-75
2022/09/30 06:26:51;;;;;;;10.57;7.22;;;4.40;1.00;;;;;;5082129;28;20264;-75
2022/09/30 06:29:18;;;;;;;15.15;7.47;;;4.50;1.00;;;;;;5086010;28;20170;-75
2022/09/30 06:31:45;;;;;;;10.07;7.10;;;4.60;1.00;;;;;;5073447;28;20496;-75
2022/09/30 06:34:10;;;;;;;23.33;6.55;;;4.70;1.00;;;;;;5073566;28;20206;-74
2022/09/30 06:36:39;;;;;;;12.97;7.10;;;4.80;1.00;;;;;;5072111;28;20225;-73
2022/09/30 06:39:04;;;;;;;11.55;6.78;;;4.80;1.00;;;;;;5053505;28;20832;-67
2022/09/30 06:41:30;;;;;;;10.30;7.87;;;5.00;1.00;;;;;;5086366;28;20671;-67
2022/09/30 06:43:56;;;;;;;12.23;7.53;;;5.10;1.00;;;;;;5080727;28;20183;-67
2022/09/30 06:46:23;;;;;;;12.23;7.20;;;5.20;1.00;;;;;;5080334;28;20252;-67
2022/09/30 06:48:57;;;;;;;18.88;7.47;;;5.30;1.00;;;;;;5080925;28;20840;-67
2022/09/30 06:51:28;;;;;;;11.47;7.80;;;5.40;1.00;;;;;;5073821;28;20181;-67
2022/09/30 06:53:55;;;;;;;15.70;8.50;;;5.50;1.00;;;;;;5076997;28;20432;-71
2022/09/30 06:56:21;;;;;;;13.10;8.10;;;5.60;1.00;;;;;;5072992;28;20438;-72
2022/09/30 06:58:47;;;;;;;13.53;7.23;;;5.70;1.00;;;;;;5085077;28;20482;-70
2022/09/30 07:01:14;;;;;;;10.60;7.47;;;5.80;1.00;;;;;;5077306;28;20432;-70
2022/09/30 07:03:43;;;;;;;10.13;7.50;;;6.00;1.00;;;;;;5075585;28;20408;-70
2022/09/30 07:06:09;;;;;;;12.30;8.40;;;6.10;1.00;;;;;;5073095;28;20464;-71
2022/09/30 07:08:37;;;;;;;14.03;7.63;;;6.20;1.00;;;;;;5078605;28;20435;-67
2022/09/30 07:11:13;;;;;;;15.63;8.70;;;6.40;1.00;;;;;;5079664;28;20433;-67
2022/09/30 07:13:44;;;;;;;18.70;10.07;;;6.50;1.00;;;;;;5080241;28;20915;-67
2022/09/30 07:16:12;;;;;;;15.13;9.87;;;6.70;1.00;;;;;;5073679;28;20441;-68
2022/09/30 07:18:41;;;;;;;20.97;10.67;;;6.90;1.00;;;;;;5076615;28;20433;-67
2022/09/30 07:21:38;;;;;;;12.00;8.83;;;7.00;1.00;;;;;;5074572;28;20455;-78
2022/09/30 07:24:16;;;;;;;16.17;9.67;;;7.20;1.00;;;;;;5091878;28;20456;-79
2022/09/30 07:26:45;;;;;;;16.30;9.87;;;7.30;1.00;;;;;;5086749;28;20463;-80
2022/09/30 07:29:21;;;;;;;18.57;11.17;;;7.50;1.00;;;;;;5072914;28;20456;-79
2022/09/30 07:31:51;;;;;;;18.40;11.93;;;7.60;2.30;;;;;;5074138;28;20448;-80
2022/09/30 07:34:33;;;;;;;17.27;11.70;;;7.80;2.80;;;;;;5077235;28;21022;-79
2022/09/30 07:37:17;;;;;;;18.63;12.00;;;8.00;3.60;;;;;;5083093;28;20428;-79
2022/09/30 07:40:04;;;;;;;30.33;13.57;;;8.10;1.00;;;;;;5078377;28;21012;-79
2022/09/30 07:42:50;;;;;;;17.20;11.13;;;8.30;1.00;;;;;;5076378;28;20433;-79
2022/09/30 07:45:21;;;;;;;18.03;11.60;;;8.40;1.00;;;;;;5084198;28;20435;-79
2022/09/30 07:47:51;;;;;;;18.43;9.23;;;8.60;1.00;;;;;;5082356;28;20970;-79
2022/09/30 07:50:27;;;;;;;12.80;8.40;;;8.70;1.00;;;;;;5094651;28;20404;-79
2022/09/30 07:53:20;;;;;;;13.70;8.50;;;8.90;1.00;;;;;;5075932;28;20884;-79
2022/09/30 07:55:51;;;;;;;13.50;8.43;;;9.00;1.00;;;;;;5077740;28;20765;-79
2022/09/30 07:58:17;;;;;;;10.40;8.10;;;9.10;1.00;;;;;;5081117;28;20436;-81
2022/09/30 08:00:51;;;;;;;10.40;7.80;;;9.30;1.00;;;;;;5091933;28;20416;-79
2022/09/30 08:03:21;;;;;;;12.77;7.33;;;9.40;1.00;;;;;;5081597;28;20425;-79
2022/09/30 08:05:51;;;;;;;10.30;7.03;;;9.50;1.00;;;;;;5091430;28;20416;-80
2022/09/30 08:08:21;;;;;;;7.80;6.47;;;9.60;1.00;;;;;;5082861;28;20485;-80
2022/09/30 08:10:51;;;;;;;16.00;8.00;;;9.80;1.00;;;;;;5081602;28;20419;-79
2022/09/30 08:13:21;;;;;;;7.97;6.40;;;9.90;1.00;;;;;;5087196;28;20943;-83
2022/09/30 08:15:51;;;;;;;7.07;6.23;;;9.90;1.00;;;;;;5076265;28;20817;-83
2022/09/30 08:18:17;;;;;;;8.80;5.30;;;10.00;1.00;;;;;;5090518;28;20518;-83
2022/09/30 08:20:51;;;;;;;17.20;5.80;;;10.10;1.00;;;;;;5085327;28;20561;-83
2022/09/30 08:24:08;;;;;;;7.73;5.70;;;10.30;1.00;;;;;;5089175;28;20223;-83
2022/09/30 08:26:57;;;;;;;12.20;5.90;;;10.40;1.00;;;;;;5097592;28;20455;-82
2022/09/30 08:29:22;;;;;;;6.63;5.13;;;10.50;1.00;;;;;;5082209;28;20436;-82
2022/09/30 08:31:57;;;;;;;14.63;6.33;;;10.60;1.00;;;;;;5089126;28;20424;-82
2022/09/30 08:37:44;;;;;;;7.33;5.07;;;10.70;1.00;;;;;;5089427;28;20500;-82
2022/09/30 08:40:32;;;;;;;7.90;4.83;;;10.80;1.00;;;;;;5075407;28;20518;-83
2022/09/30 08:46:49;;;;;;;6.17;4.97;;;11.00;1.00;;;;;;5079362;28;20857;-84
2022/09/30 08:49:33;;;;;;;5.57;4.27;;;11.10;1.00;;;;;;5082520;28;20482;-83
2022/09/30 08:52:09;;;;;;;7.27;5.70;;;11.20;1.00;;;;;;5076777;28;20459;-84
2022/09/30 08:55:14;;;;;;;7.97;4.07;;;11.30;1.00;;;;;;5076777;28;20428;-84
2022/09/30 08:58:03;;;;;;;6.03;4.03;;;11.40;1.00;;;;;;5079448;28;20439;-84
2022/09/30 09:00:30;;;;;;;5.57;4.63;;;11.50;1.00;;;;;;5102856;28;20437;-86
2022/09/30 09:03:03;;;;;;;8.10;4.33;;;11.60;1.00;;;;;;5077582;28;20436;-82
2022/09/30 09:05:46;;;;;;;11.83;4.03;;;11.80;1.00;;;;;;5077766;28;20440;-84
2022/09/30 09:08:50;;;;;;;10.10;4.90;;;11.90;1.00;;;;;;5069368;28;20433;-84
2022/09/30 09:11:45;;;;;;;7.37;5.30;;;11.90;1.00;;;;;;5090804;28;20427;-84
2022/09/30 09:21:09;;;;;;;6.47;4.53;;;12.30;1.00;;;;;;5081831;28;20419;-83
2022/09/30 09:23:39;;;;;;;9.77;4.60;;;12.40;1.00;;;;;;5093105;28;20943;-82
2022/09/30 09:26:15;;;;;;;7.90;4.33;;;12.50;1.00;;;;;;5076172;28;20544;-79
2022/09/30 09:29:17;;;;;;;6.90;4.43;;;12.50;1.00;;;;;;5078745;28;20861;-78
2022/09/30 09:31:58;;;;;;;7.30;3.90;;;12.60;1.00;;;;;;5076004;28;20504;-81
2022/09/30 09:34:29;;;;;;;6.87;4.40;;;12.80;1.00;;;;;;5082369;28;20404;-81
2022/09/30 09:38:23;;;;;;;4.43;3.90;;;12.80;1.00;;;;;;5077744;28;20433;-81
2022/09/30 09:40:25;;;;;;;5.50;4.20;;;12.90;1.00;;;;;;5074686;28;20421;-81
2022/09/30 09:43:33;;;;;;;5.57;3.83;;;13.20;1.00;;;;;;5084693;28;20528;-81
2022/09/30 09:46:20;;;;;;;5.47;3.70;;;13.30;1.00;;;;;;5075911;28;20453;-82
2022/09/30 09:49:19;;;;;;;6.10;4.07;;;13.50;1.00;;;;;;5074250;28;20409;-81
2022/09/30 09:52:32;;;;;;;5.00;3.70;;;13.50;1.00;;;;;;5007504;28;20440;-81
2022/09/30 09:55:10;;;;;;;6.10;3.77;;;13.70;1.00;;;;;;4995804;28;20565;-81
2022/09/30 09:58:20;;;;;;;4.10;3.63;;;13.80;1.00;;;;;;5008585;28;20534;-81
2022/09/30 10:03:23;;;;;;;5.53;3.53;;;14.00;1.00;;;;;;5005702;28;20552;-80
2022/09/30 10:06:08;;;;;;;9.37;3.30;;;14.00;1.00;;;;;;4976895;28;20570;-81
2022/09/30 10:09:21;;;;;;;6.80;3.80;;;14.10;1.00;;;;;;4996095;28;20926;-81
2022/09/30 10:12:08;;;;;;;5.57;3.73;;;14.30;1.00;;;;;;4968382;28;20528;-81
2022/09/30 10:15:29;;;;;;;3.60;3.10;;;14.40;1.00;;;;;;4968311;28;20425;-81
2022/09/30 10:21:25;;;;;;;6.23;3.27;;;14.80;1.00;;;;;;4915021;29;20432;-81
2022/09/30 10:24:25;;;;;;;4.70;3.20;;;14.90;1.00;;;;;;4908480;29;20920;-81
2022/09/30 10:26:51;;;;;;;4.30;3.80;;;15.00;1.00;;;;;;4911561;29;20452;-81
2022/09/30 10:30:08;;;;;;;4.30;3.20;;;15.10;1.00;;;;;;4943340;29;20449;-81
2022/09/30 10:32:39;;;;;;;3.50;3.20;;;15.10;1.00;;;;;;4931944;29;20187;-81
2022/09/30 10:35:26;;;;;;;9.10;3.27;;;15.00;1.00;;;;;;4940434;29;20402;-81
2022/09/30 10:37:53;;;;;;;4.63;2.80;;;15.10;1.00;;;;;;4950041;29;20419;-80
2022/09/30 10:40:27;;;;;;;10.93;3.10;;;15.30;1.00;;;;;;4950683;29;20440;-78
2022/09/30 10:42:54;;;;;;;3.73;2.67;;;15.10;1.00;;;;;;4937498;29;20394;-82
2022/09/30 10:45:32;;;;;;;6.70;2.63;;;15.10;1.00;;;;;;4943359;28;20525;-80
2022/09/30 10:48:17;;;;;;;4.30;2.50;;;15.30;1.00;;;;;;4954413;28;20478;-80
2022/09/30 10:50:50;;;;;;;6.77;3.17;;;15.50;1.00;;;;;;4996386;28;20485;-81
2022/09/30 10:53:41;;;;;;;2.73;2.53;;;15.50;1.00;;;;;;5080160;28;20426;-82
2022/09/30 10:56:09;;;;;;;3.33;2.37;;;15.60;1.00;;;;;;5076895;28;20848;-78
2022/09/30 10:58:55;;;;;;;3.47;2.57;;;15.70;1.00;;;;;;5088654;28;20913;-77
2022/09/30 11:01:31;;;;;;;3.70;2.03;;;15.90;1.00;;;;;;5079224;28;20978;-78
2022/09/30 11:04:10;;;;;;;10.43;2.40;;;16.10;1.00;;;;;;5081344;28;20928;-78
2022/09/30 11:06:41;;;;;;;3.23;2.40;;;16.30;1.00;;;;;;5080306;28;20773;-78
2022/09/30 11:09:43;;;;;;;4.63;2.70;;;16.40;1.00;;;;;;5090560;28;20421;-78
2022/09/30 11:12:43;;;;;;;2.57;2.37;;;16.50;1.00;;;;;;5083252;28;20396;-75
2022/09/30 11:15:27;;;;;;;5.17;2.77;;;16.70;1.00;;;;;;5086577;28;20439;-75
2022/09/30 11:18:01;;;;;;;3.47;2.20;;;16.90;1.00;;;;;;5079254;28;20401;-76
2022/09/30 11:20:59;;;;;;;1.70;1.60;;;17.00;1.00;;;;;;5073817;28;20780;-75
2022/09/30 11:23:53;;;;;;;7.73;2.87;;;17.30;1.00;;;;;;4993840;28;20408;-75
2022/09/30 11:26:28;;;;;;;3.37;2.53;;;17.50;1.00;;;;;;4986903;28;20926;-75
2022/09/30 11:29:46;;;;;;;9.13;2.30;;;17.80;1.00;;;;;;5011895;28;20551;-75
2022/09/30 11:32:33;;;;;;;5.00;2.00;;;18.00;1.00;;;;;;4938748;29;20447;-75
2022/09/30 11:35:07;;;;;;;6.00;2.00;;;17.70;1.00;;;;;;4949630;28;20440;-75
2022/09/30 11:37:57;;;;;;;4.63;2.07;;;17.60;1.00;;;;;;4955225;29;20391;-75
2022/09/30 11:40:54;;;;;;;2.70;2.23;;;17.60;1.00;;;;;;4950729;29;20529;-75
2022/09/30 11:43:28;;;;;;;2.60;1.97;;;17.50;1.00;;;;;;4943275;29;20411;-75
2022/09/30 11:46:20;;;;;;;3.50;2.10;;;17.60;1.00;;;;;;4941273;29;20945;-75
2022/09/30 11:49:05;;;;;;;3.17;1.90;;;17.80;1.00;;;;;;4947568;28;20542;-75
2022/09/30 11:51:48;;;;;;;2.37;1.97;;;17.90;1.00;;;;;;4951428;29;20428;-75
2022/09/30 11:54:20;;;;;;;4.60;1.73;;;18.10;1.00;;;;;;4944383;29;20401;-75
2022/09/30 11:57:28;;;;;;;4.93;1.93;;;18.40;1.00;;;;;;4955219;29;20426;-80
2022/09/30 12:00:32;;;;;;;3.60;2.10;;;18.70;1.00;;;;;;4883141;29;20417;-80
2022/09/30 12:03:26;;;;;;;42.30;20.53;;;18.90;1.00;;;;;;4910925;29;20449;-80
2022/09/30 12:09:51;;;;;;;1.77;1.50;;;19.20;1.00;;;;;;5004321;28;20419;-79
2022/09/30 12:12:18;;;;;;;3.43;2.50;;;19.20;1.00;;;;;;5004081;28;20415;-74
2022/09/30 12:15:04;;;;;;;958.57;698.30;;;19.10;1.00;;;;;;5003149;28;20949;-74
2022/09/30 12:17:40;;;;;;;32.07;18.60;;;19.20;1.00;;;;;;4995696;28;20998;-75
2022/09/30 12:20:36;;;;;;;3.90;3.00;;;19.10;1.00;;;;;;4994668;28;20409;-74
2022/09/30 12:23:19;;;;;;;5.87;4.00;;;18.90;1.00;;;;;;4998749;28;20423;-75
2022/09/30 12:25:54;;;;;;;8.03;5.23;;;18.50;1.00;;;;;;5001010;28;20818;-75
2022/09/30 12:31:50;;;;;;;2.50;2.30;;;17.90;1.00;;;;;;4942026;29;20873;-76
2022/09/30 12:35:00;;;;;;;3.73;2.30;;;17.90;1.00;;;;;;4983202;28;20432;-75
2022/09/30 12:38:05;;;;;;;2.17;2.07;;;18.00;1.00;;;;;;4936421;29;20468;-77
2022/09/30 12:40:40;;;;;;;4.33;1.70;;;18.20;1.00;;;;;;4936214;29;20432;-75
2022/09/30 12:43:35;;;;;;;7.47;5.33;;;18.30;1.00;;;;;;4920373;29;20443;-75
2022/09/30 12:46:40;;;;;;;8.90;6.03;;;18.40;1.00;;;;;;4941153;29;20443;-75
2022/09/30 12:49:13;;;;;;;3.33;1.53;;;18.40;1.00;;;;;;4931809;29;20896;-75
2022/09/30 12:51:43;;;;;;;5.10;1.50;;;18.20;1.00;;;;;;4921144;29;20510;-75
2022/09/30 12:54:32;;;;;;;3.37;1.60;;;17.90;1.00;;;;;;4935372;29;20416;-75
2022/09/30 12:57:44;;;;;;;11.00;3.10;;;18.10;1.00;;;;;;4939406;29;20438;-81
2022/09/30 13:00:20;;;;;;;4.33;1.50;;;18.30;1.00;;;;;;4934160;29;20544;-81
2022/09/30 13:03:01;;;;;;;1.93;1.40;;;18.50;1.00;;;;;;4938547;29;20441;-81
2022/09/30 13:09:38;;;;;;;0.97;0.97;;;18.40;1.00;;;;;;5001280;28;20395;-81
2022/09/30 13:12:04;;;;;;;3.80;1.10;;;18.30;1.00;;;;;;5004034;28;20446;-75
2022/09/30 13:14:36;;;;;;;99.63;57.00;;;18.40;1.00;;;;;;5066006;28;20513;-75
2022/09/30 13:17:03;;;;;;;39.93;22.27;;;18.50;1.00;;;;;;5080610;28;20176;-75
2022/09/30 13:19:36;;;;;;;3.83;1.43;;;18.70;1.00;;;;;;5081477;28;20450;-76
2022/09/30 13:22:23;;;;;;;1.90;1.40;;;18.80;1.00;;;;;;5089949;28;20461;-75
2022/09/30 13:25:01;;;;;;;20.33;9.20;;;18.50;1.00;;;;;;5085557;28;20415;-75
2022/09/30 13:27:54;;;;;;;7.90;2.40;;;18.50;1.00;;;;;;5080637;28;20440;-81
2022/09/30 13:30:35;;;;;;;2.10;1.20;;;18.50;1.00;;;;;;5084331;28;20419;-80
2022/09/30 13:33:01;;;;;;;1.37;1.17;;;18.30;1.00;;;;;;5084390;28;20401;-81
2022/09/30 13:35:39;;;;;;;14.27;9.00;;;18.40;1.00;;;;;;5082539;28;20432;-78
2022/09/30 13:38:33;;;;;;;2.40;1.20;;;18.50;1.00;;;;;;5074533;28;20397;-78
2022/09/30 13:41:23;;;;;;;495.43;326.83;;;18.40;1.00;;;;;;5074207;28;20442;-81
2022/09/30 13:44:01;;;;;;;5.27;2.77;;;18.60;1.00;;;;;;5091086;28;20741;-81
2022/09/30 13:46:42;;;;;;;5.33;4.30;;;18.80;1.00;;;;;;5073820;28;20503;-80
2022/09/30 13:49:48;;;;;;;4.90;2.77;;;18.80;1.00;;;;;;5074370;28;20404;-80
2022/09/30 13:52:37;;;;;;;2.83;1.30;;;19.00;1.00;;;;;;5076615;28;20390;-80
2022/09/30 13:55:20;;;;;;;6.60;4.47;;;19.00;1.00;;;;;;5085779;28;20441;-80
2022/09/30 13:58:23;;;;;;;4.33;1.23;;;19.00;1.00;;;;;;5075916;28;20995;-80
2022/09/30 14:00:58;;;;;;;3.17;1.20;;;19.00;1.00;;;;;;5073869;28;20419;-82
2022/09/30 14:03:54;;;;;;;23.90;15.47;;;18.90;1.00;;;;;;5082834;28;20834;-82
2022/09/30 14:06:50;;;;;;;3.40;1.30;;;18.80;1.00;;;;;;5076354;28;20458;-80
2022/09/30 14:13:06;;;;;;;1.93;1.43;;;18.70;1.00;;;;;;5003070;28;20923;-78
2022/09/30 14:15:56;;;;;;;1.57;1.10;;;18.70;1.00;;;;;;5010544;28;20850;-78
2022/09/30 14:19:00;;;;;;;1.50;1.40;;;18.60;1.00;;;;;;5010942;28;21037;-77
2022/09/30 14:21:42;;;;;;;1.97;1.20;;;18.50;1.00;;;;;;5012523;28;20412;-78
2022/09/30 14:24:39;;;;;;;1.30;1.20;;;18.40;1.00;;;;;;5012423;28;20433;-78
2022/09/30 14:27:32;;;;;;;2.03;1.50;;;18.40;1.00;;;;;;4983855;28;20474;-81
2022/09/30 14:30:38;;;;;;;3.10;1.80;;;18.50;1.00;;;;;;5010517;28;20422;-82
2022/09/30 14:33:40;;;;;;;12.00;7.30;;;18.30;1.00;;;;;;5003338;28;20436;-81
2022/09/30 14:36:15;;;;;;;11.63;6.47;;;18.20;1.00;;;;;;4995298;28;20397;-81
2022/09/30 14:39:14;;;;;;;3.50;1.90;;;18.30;1.00;;;;;;5011831;28;20432;-81
2022/09/30 14:41:55;;;;;;;2.47;1.37;;;18.40;1.00;;;;;;5011485;28;20424;-81
2022/09/30 14:44:24;;;;;;;4.40;1.50;;;18.30;1.00;;;;;;5011117;28;20437;-81
2022/09/30 14:46:58;;;;;;;3.00;1.13;;;18.20;1.00;;;;;;5059319;28;20468;-80
2022/09/30 14:50:03;;;;;;;2.30;1.67;;;18.30;1.00;;;;;;5080373;28;20454;-79
2022/09/30 14:53:03;;;;;;;54.57;35.07;;;18.30;1.00;;;;;;5079926;28;20398;-80
2022/09/30 14:55:34;;;;;;;107.70;59.03;;;18.30;1.00;;;;;;5075954;28;20884;-80
2022/09/30 14:58:27;;;;;;;4.77;2.10;;;18.30;1.00;;;;;;5082225;28;20398;-81
2022/09/30 15:00:59;;;;;;;3.97;1.50;;;18.20;1.00;;;;;;5080446;28;20764;-79
2022/09/30 15:03:27;;;;;;;76.60;45.63;;;18.20;1.00;;;;;;5084007;28;20414;-79
2022/09/30 15:09:49;;;;;;;1.83;1.50;;;18.30;1.00;;;;;;5079938;28;20405;-78
2022/09/30 15:12:41;;;;;;;1.50;1.40;;;18.40;1.00;;;;;;5008003;28;20849;-79
2022/09/30 15:15:36;;;;;;;6.93;1.40;;;18.40;1.00;;;;;;5024471;28;20877;-77
2022/09/30 15:18:27;;;;;;;1.80;1.13;;;18.50;1.00;;;;;;5015758;28;20440;-79
2022/09/30 15:20:56;;;;;;;2.37;1.47;;;18.50;1.00;;;;;;5035238;28;20806;-78
2022/09/30 15:23:32;;;;;;;3.30;1.80;;;18.60;1.00;;;;;;5033932;28;20425;-78